Time;durP1;ratioP1;P1;durP2;ratioP2;P2;SDS_P1;SDS_P2;PMS_P1;PMS_P2;Temp;Humidity;BMP_temperature;BMP_pressure;BME280_temperature;BME280_humidity;BME280_pressure;Samples;Min_cycle;Max_cycle;Signal;HPM_P1;HPM_P2
2023/10/12 00:00:26;;;;;;;;;;;;;;;21.19;31.35;101761.97;103037;1292;61355;-83
2023/10/12 00:02:52;;;;;;;;;;;;;;;21.19;31.32;101761.63;103151;1288;75442;-82
2023/10/12 00:05:18;;;;;;;;;;;;;;;21.18;31.29;101754.50;103194;1291;61421;-80
2023/10/12 00:07:49;;;;;;;;;;;;;;;21.19;31.45;101753.20;103103;1291;61334;-81
2023/10/12 00:12:47;;;;;;;;;;;;;;;21.18;31.36;101750.18;103200;1288;61407;-81
2023/10/12 00:15:28;;;;;;;;;;;;;;;21.18;31.31;101747.89;103094;1288;62438;-81
2023/10/12 00:18:04;;;;;;;;;;;;;;;21.18;31.35;101745.90;103206;1287;61399;-82
2023/10/12 00:22:58;;;;;;;;;;;;;;;21.18;31.36;101741.76;103257;1288;61408;-83
2023/10/12 00:25:25;;;;;;;;;;;;;;;21.18;31.32;101740.17;103098;1288;61331;-81
2023/10/12 00:27:51;;;;;;;;;;;;;;;21.18;31.45;101739.65;103131;1288;62288;-82
2023/10/12 00:30:17;;;;;;;;;;;;;;;21.18;31.43;101733.21;103104;1293;61335;-83
2023/10/12 00:32:43;;;;;;;;;;;;;;;21.18;31.47;101728.73;103179;1288;61217;-80
2023/10/12 00:35:10;;;;;;;;;;;;;;;21.18;31.42;101727.49;103113;1288;61414;-81
2023/10/12 00:37:37;;;;;;;;;;;;;;;21.17;31.40;101727.32;103155;1288;62504;-82
2023/10/12 00:40:23;;;;;;;;;;;;;;;21.17;31.35;101728.76;103043;1288;72837;-82
2023/10/12 00:42:53;;;;;;;;;;;;;;;21.17;31.48;101729.83;103052;1288;74471;-82
2023/10/12 00:45:29;;;;;;;;;;;;;;;21.18;31.31;101724.27;103007;1288;61390;-81
2023/10/12 00:48:04;;;;;;;;;;;;;;;21.17;31.43;101723.55;103273;1292;61465;-81
2023/10/12 00:50:30;;;;;;;;;;;;;;;21.18;31.43;101724.27;103415;1287;72386;-81
2023/10/12 00:52:56;;;;;;;;;;;;;;;21.18;31.44;101724.27;103057;1293;61445;-81
2023/10/12 00:55:36;;;;;;;;;;;;;;;21.18;31.34;101721.77;103303;1288;62342;-82
2023/10/12 00:58:04;;;;;;;;;;;;;;;21.18;31.63;101719.80;103366;1288;61388;-82
2023/10/12 01:00:35;;;;;;;;;;;;;;;21.18;31.46;101719.08;103444;1289;72271;-81
2023/10/12 01:03:07;;;;;;;;;;;;;;;21.18;31.48;101717.81;103190;1288;74442;-81
2023/10/12 01:05:36;;;;;;;;;;;;;;;21.18;31.46;101716.02;103188;1288;61392;-82
2023/10/12 01:08:05;;;;;;;;;;;;;;;21.18;31.49;101714.95;103145;1288;61326;-81
2023/10/12 01:10:41;;;;;;;;;;;;;;;21.18;31.53;101716.73;103235;1288;72342;-82
2023/10/12 01:13:09;;;;;;;;;;;;;;;21.18;31.49;101718.54;103350;1288;74530;-80
2023/10/12 01:15:34;;;;;;;;;;;;;;;21.18;31.44;101714.95;102980;1288;61714;-82
2023/10/12 01:18:00;;;;;;;;;;;;;;;21.18;31.40;101712.10;103312;1287;61426;-81
2023/10/12 01:20:49;;;;;;;;;;;;;;;21.17;31.40;101706.02;103098;1287;61886;-80
2023/10/12 01:23:14;;;;;;;;;;;;;;;21.17;31.45;101709.05;102597;1294;75552;-81
2023/10/12 01:25:44;;;;;;;;;;;;;;;21.17;31.42;101708.36;102689;1299;62544;-82
2023/10/12 01:28:12;;;;;;;;;;;;;;;21.17;31.44;101706.20;102773;1294;62557;-80
2023/10/12 01:30:39;;;;;;;;;;;;;;;21.17;31.58;101701.21;102582;1294;72339;-81
2023/10/12 01:33:04;;;;;;;;;;;;;;;21.17;31.53;101702.98;102726;1298;74535;-80
2023/10/12 01:35:33;;;;;;;;;;;;;;;21.17;31.56;101701.03;102490;1294;61581;-81
2023/10/12 01:38:08;;;;;;;;;;;;;;;21.17;31.49;101699.95;102478;1293;61389;-80
2023/10/12 01:43:35;;;;;;;;;;;;;;;21.17;31.45;101697.81;102160;1305;74998;-82
2023/10/12 01:46:07;;;;;;;;;;;;;;;21.16;31.42;101693.55;102224;1300;61600;-81
2023/10/12 01:48:33;;;;;;;;;;;;;;;21.16;31.54;101692.48;102196;1303;61325;-81
2023/10/12 01:51:14;;;;;;;;;;;;;;;21.16;31.65;101691.39;102238;1300;72393;-81
2023/10/12 01:53:40;;;;;;;;;;;;;;;21.17;31.50;101688.52;102143;1302;74713;-81
2023/10/12 01:56:09;;;;;;;;;;;;;;;21.16;31.59;101689.96;102161;1300;62031;-81
2023/10/12 01:58:35;;;;;;;;;;;;;;;21.16;31.55;101681.21;102159;1299;61482;-83
2023/10/12 02:01:05;;;;;;;;;;;;;;;21.16;31.61;101682.30;102477;1297;61313;-81
2023/10/12 02:03:32;;;;;;;;;;;;;;;21.16;31.56;101688.39;102612;1294;75176;-81
2023/10/12 02:06:06;;;;;;;;;;;;;;;21.16;31.53;101689.79;102523;1297;61611;-82
2023/10/12 02:08:42;;;;;;;;;;;;;;;21.16;31.38;101684.48;102614;1298;61209;-82
2023/10/12 02:13:37;;;;;;;;;;;;;;;21.16;31.51;101687.52;102679;1296;74313;-81
2023/10/12 02:16:03;;;;;;;;;;;;;;;21.15;31.49;101687.53;102509;1294;61411;-82
2023/10/12 02:18:35;;;;;;;;;;;;;;;21.15;31.51;101687.17;103038;1288;62448;-82
2023/10/12 02:23:53;;;;;;;;;;;;;;;21.15;31.54;101685.95;102990;1288;75799;-81
2023/10/12 02:26:37;;;;;;;;;;;;;;;21.15;31.48;101676.98;103142;1288;61322;-80
2023/10/12 02:31:39;;;;;;;;;;;;;;;21.15;31.62;101671.64;103240;1289;72135;-82
2023/10/12 02:34:17;;;;;;;;;;;;;;;21.15;31.59;101671.27;103068;1288;74472;-82
2023/10/12 02:36:56;;;;;;;;;;;;;;;21.15;31.57;101664.48;103006;1288;61303;-81
2023/10/12 02:39:22;;;;;;;;;;;;;;;21.14;31.61;101662.16;103324;1288;61683;-81
2023/10/12 02:41:56;;;;;;;;;;;;;;;21.14;31.61;101660.55;103204;1288;62683;-81
2023/10/12 02:44:22;;;;;;;;;;;;;;;21.14;31.69;101656.97;103179;1288;75218;-83
2023/10/12 02:47:12;;;;;;;;;;;;;;;21.14;31.63;101654.65;103147;1290;61962;-81
2023/10/12 02:49:39;;;;;;;;;;;;;;;21.14;31.60;101652.33;103182;1289;62204;-81
2023/10/12 02:52:08;;;;;;;;;;;;;;;21.14;31.54;101654.46;103221;1291;72232;-80
2023/10/12 02:54:50;;;;;;;;;;;;;;;21.14;31.63;101652.86;103366;1288;74523;-82
2023/10/12 02:57:23;;;;;;;;;;;;;;;21.14;31.59;101653.95;103139;1288;61332;-82
2023/10/12 02:59:56;;;;;;;;;;;;;;;21.14;31.53;101653.93;103275;1290;61410;-81
2023/10/12 03:02:34;;;;;;;;;;;;;;;21.14;31.69;101658.07;103187;1291;72485;-81
2023/10/12 03:05:02;;;;;;;;;;;;;;;21.14;31.56;101661.64;103111;1291;74482;-82
2023/10/12 03:07:31;;;;;;;;;;;;;;;21.14;31.66;101657.53;103093;1290;61723;-81
2023/10/12 03:09:58;;;;;;;;;;;;;;;21.14;31.63;101658.26;102973;1288;61495;-81
2023/10/12 03:12:25;;;;;;;;;;;;;;;21.14;31.60;101657.71;103154;1288;72604;-80
2023/10/12 03:14:51;;;;;;;;;;;;;;;21.13;31.76;101658.45;103163;1288;61336;-81
2023/10/12 03:17:20;;;;;;;;;;;;;;;21.13;31.72;101655.05;103228;1288;62539;-83
2023/10/12 03:19:55;;;;;;;;;;;;;;;21.14;31.67;101659.16;103075;1291;61311;-81
2023/10/12 03:22:34;;;;;;;;;;;;;;;21.13;31.62;101659.18;103198;1290;72547;-81
2023/10/12 03:25:13;;;;;;;;;;;;;;;21.13;31.65;101660.61;103218;1288;75441;-80
2023/10/12 03:27:40;;;;;;;;;;;;;;;21.12;31.52;101656.22;103108;1288;61273;-80
2023/10/12 03:30:10;;;;;;;;;;;;;;;21.12;31.72;101663.05;103253;1288;61355;-81
2023/10/12 03:32:35;;;;;;;;;;;;;;;21.11;31.63;101666.65;103193;1290;72713;-81
2023/10/12 03:35:04;;;;;;;;;;;;;;;21.10;31.69;101668.67;103313;1287;61412;-81
2023/10/12 03:38:34;;;;;;;;;;;;;;;21.07;31.74;101668.98;103141;1288;61354;-81
2023/10/12 03:43:28;;;;;;;;;;;;;;;21.01;31.73;101666.50;103371;1292;72338;-80
2023/10/12 03:46:07;;;;;;;;;;;;;;;20.99;31.73;101667.89;103241;1290;73307;-80
2023/10/12 03:49:06;;;;;;;;;;;;;;;20.95;31.61;101670.45;103252;1288;61388;-81
2023/10/12 03:51:41;;;;;;;;;;;;;;;20.89;31.51;101668.95;103147;1288;63147;-81
2023/10/12 03:56:53;;;;;;;;;;;;;;;20.78;31.52;101660.45;103350;1287;74344;-80
2023/10/12 03:59:25;;;;;;;;;;;;;;;20.74;31.62;101660.30;103099;1291;61808;-80
2023/10/12 04:01:54;;;;;;;;;;;;;;;20.71;31.46;101658.16;103239;1289;64479;-80
2023/10/12 04:04:21;;;;;;;;;;;;;;;20.68;31.33;101661.89;103224;1288;72414;-81
2023/10/12 04:10:13;;;;;;;;;;;;;;;20.63;31.53;101658.59;103281;1293;61251;-82
2023/10/12 04:12:35;;;;;;;;;;;;;;;20.60;31.49;101661.80;103251;1288;61386;-82
2023/10/12 04:15:06;;;;;;;;;;;;;;;20.58;31.51;101664.92;103254;1292;73294;-81
2023/10/12 04:25:21;;;;;;;;;;;;;;;20.55;31.45;101676.02;103293;1288;72580;-79
2023/10/12 04:28:03;;;;;;;;;;;;;;;20.58;31.43;101676.04;103172;1288;74465;-82
2023/10/12 04:30:33;;;;;;;;;;;;;;;20.59;31.44;101679.73;103048;1292;61365;-81
2023/10/12 04:43:38;;;;;;;;;;;;;;;20.65;31.47;101678.52;103444;1288;61374;-83
2023/10/12 04:46:37;;;;;;;;;;;;;;;;;;;;;
2023/10/12 04:49:36;;;;;;;;;;;;;;;20.66;31.35;101683.52;103691;1298;74676;-80
2023/10/12 04:51:59;;;;;;;;;;;;;;;20.64;31.48;101683.23;103627;1294;62090;-79
2023/10/12 04:54:25;;;;;;;;;;;;;;;20.62;31.47;101682.45;103946;1294;61410;-81
2023/10/12 04:57:13;;;;;;;;;;;;;;;20.58;31.60;101692.63;103999;1294;61310;-80
2023/10/12 04:59:50;;;;;;;;;;;;;;;20.58;31.62;101695.88;104024;1295;75415;-80
2023/10/12 05:09:49;;;;;;;;;;;;;;;20.59;31.68;101697.77;104095;1294;74576;-81
2023/10/12 05:12:14;;;;;;;;;;;;;;;20.60;31.68;101697.17;105565;1297;60000;-80
2023/10/12 05:14:40;;;;;;;;;;;;;;;20.62;31.80;101702.63;105672;1294;59266;-80
2023/10/12 05:17:08;;;;;;;;;;;;;;;20.64;31.70;101703.09;105678;1294;58893;-82
2023/10/12 05:19:33;;;;;;;;;;;;;;;20.66;31.86;101699.41;105633;1294;59587;-81
2023/10/12 05:21:59;;;;;;;;;;;;;;;20.67;31.67;101699.70;105661;1294;59332;-81
2023/10/12 05:24:24;;;;;;;;;;;;;;;20.68;31.82;101698.77;105730;1294;59225;-81
2023/10/12 05:27:09;;;;;;;;;;;;;;;20.69;31.82;101701.02;106201;1287;59677;-81
2023/10/12 05:29:46;;;;;;;;;;;;;;;20.70;31.74;101700.95;106133;1288;74576;-81
2023/10/12 05:40:11;;;;;;;;;;;;;;;;;;;;;
2023/10/12 05:42:33;;;;;;;;;;;;;;;20.72;31.57;101703.38;104380;1288;61428;-82
2023/10/12 05:47:44;;;;;;;;;;;;;;;20.74;31.49;101707.04;104370;1293;72890;-81
2023/10/12 05:50:15;;;;;;;;;;;;;;;20.74;31.58;101710.59;104524;1290;61312;-81
2023/10/12 05:52:40;;;;;;;;;;;;;;;20.74;31.64;101712.73;104463;1288;61860;-80
2023/10/12 05:55:21;;;;;;;;;;;;;;;20.73;31.52;101715.86;104949;1286;61408;-80
2023/10/12 05:57:49;;;;;;;;;;;;;;;20.65;31.66;101717.86;104907;1286;72422;-80
2023/10/12 06:00:35;;;;;;;;;;;;;;;20.63;31.91;101717.24;104979;1286;74347;-80
2023/10/12 06:03:10;;;;;;;;;;;;;;;20.62;31.76;101717.11;104753;1287;61091;-81
2023/10/12 06:05:36;;;;;;;;;;;;;;;20.60;31.96;101714.38;104800;1291;61242;-81
2023/10/12 06:08:02;;;;;;;;;;;;;;;20.55;31.81;101713.40;104722;1288;61368;-81
2023/10/12 06:10:28;;;;;;;;;;;;;;;20.56;32.06;101712.43;104912;1288;61424;-80
2023/10/12 06:12:54;;;;;;;;;;;;;;;20.59;32.04;101710.33;104766;1286;61292;-81
2023/10/12 06:15:24;;;;;;;;;;;;;;;20.61;31.94;101713.42;104594;1286;61438;-79
2023/10/12 06:17:51;;;;;;;;;;;;;;;20.64;32.00;101713.98;104678;1286;72689;-80
2023/10/12 06:20:29;;;;;;;;;;;;;;;20.65;31.77;101713.55;104667;1288;75722;-81
2023/10/12 06:22:55;;;;;;;;;;;;;;;20.68;31.82;101715.75;104662;1286;61405;-80
2023/10/12 06:25:21;;;;;;;;;;;;;;;20.69;31.86;101710.86;104714;1287;61200;-82
2023/10/12 06:27:50;;;;;;;;;;;;;;;20.70;31.78;101709.92;104342;1291;61334;-81
2023/10/12 06:30:17;;;;;;;;;;;;;;;20.71;31.88;101706.63;104478;1286;74484;-82
2023/10/12 06:32:42;;;;;;;;;;;;;;;20.71;31.87;101707.70;104523;1286;61294;-82
2023/10/12 06:43:16;;;;;;;;;;;;;;;20.73;31.91;101715.30;104327;1288;61073;-81
2023/10/12 06:45:54;;;;;;;;;;;;;;;20.73;31.82;101718.01;104556;1286;61296;-81
2023/10/12 06:51:06;;;;;;;;;;;;;;;20.70;32.03;101712.61;104415;1288;74679;-82
2023/10/12 06:53:36;;;;;;;;;;;;;;;20.70;31.97;101713.89;104246;1288;61260;-83
2023/10/12 06:56:16;;;;;;;;;;;;;;;20.68;32.07;101712.68;103899;1288;61208;-82
2023/10/12 06:58:42;;;;;;;;;;;;;;;20.67;32.38;101710.05;104168;1286;73665;-82
2023/10/12 07:03:55;;;;;;;;;;;;;;;20.69;32.71;101708.56;104767;1288;61641;-82
2023/10/12 07:06:21;;;;;;;;;;;;;;;20.69;32.77;101708.02;104667;1287;61280;-81
2023/10/12 07:08:46;;;;;;;;;;;;;;;20.63;32.81;101708.15;104658;1287;61623;-80
2023/10/12 07:11:14;;;;;;;;;;;;;;;20.60;32.91;101707.90;104593;1286;61387;-81
2023/10/12 07:13:41;;;;;;;;;;;;;;;20.60;32.95;101703.27;104689;1286;61319;-82
2023/10/12 07:16:08;;;;;;;;;;;;;;;20.59;33.01;101701.21;104741;1286;59330;-82
2023/10/12 07:18:35;;;;;;;;;;;;;;;20.59;33.05;101701.91;104324;1286;72563;-81
2023/10/12 07:21:00;;;;;;;;;;;;;;;20.60;32.97;101704.50;104403;1288;61385;-81
2023/10/12 07:23:35;;;;;;;;;;;;;;;20.60;33.08;101699.13;103997;1288;61958;-82
2023/10/12 07:26:06;;;;;;;;;;;;;;;20.60;33.02;101696.84;104454;1288;61268;-80
2023/10/12 07:28:39;;;;;;;;;;;;;;;20.62;33.37;101698.20;104326;1289;72693;-79
2023/10/12 07:41:55;;;;;;;;;;;;;;;20.65;33.50;101695.48;103897;1288;75234;-80
2023/10/12 07:44:22;;;;;;;;;;;;;;;20.67;33.58;101697.35;103774;1288;61301;-80
2023/10/12 07:46:48;;;;;;;;;;;;;;;20.69;33.72;101694.24;103942;1288;61296;-81
2023/10/12 07:57:17;;;;;;;;;;;;;;;20.63;33.74;101684.54;103989;1295;61379;-81
2023/10/12 07:59:59;;;;;;;;;;;;;;;20.61;33.81;101683.37;103918;1297;59751;-81
2023/10/12 08:13:14;;;;;;;;;;;;;;;20.57;33.91;101682.30;103430;1297;73422;-81
2023/10/12 08:21:24;;;;;;;;;;;;;;;20.65;33.76;101674.92;104041;1295;73692;-81
2023/10/12 08:27:05;;;;;;;;;;;;;;;20.70;33.67;101673.77;104384;1300;61415;-79
2023/10/12 08:37:26;;;;;;;;;;;;;;;20.78;33.89;101671.75;103093;1302;61333;-82
2023/10/12 08:42:58;;;;;;;;;;;;;;;20.81;33.77;101661.02;103011;1305;73664;-82
2023/10/12 08:45:24;;;;;;;;;;;;;;;20.83;33.84;101659.28;103450;1306;74421;-80
2023/10/12 08:47:53;;;;;;;;;;;;;;;20.85;34.01;101660.42;102912;1304;61410;-80
2023/10/12 08:52:50;;;;;;;;;;;;;;;20.86;33.86;101651.77;103487;1306;60713;-81
2023/10/12 08:55:19;;;;;;;;;;;;;;;20.85;33.96;101648.43;103209;1306;75680;-80
2023/10/12 08:57:56;;;;;;;;;;;;;;;20.91;34.49;101647.73;103072;1304;61418;-81
2023/10/12 09:05:46;;;;;;;;;;;;;;;21.12;35.37;101642.10;104141;1298;75345;-81
2023/10/12 09:10:54;;;;;;;;;;;;;;;21.17;35.62;101637.82;104253;1298;60598;-81
2023/10/12 09:13:20;;;;;;;;;;;;;;;21.17;35.71;101636.94;105585;1293;75484;-82
2023/10/12 09:15:46;;;;;;;;;;;;;;;21.15;35.75;101632.95;105186;1292;61625;-81
2023/10/12 09:18:13;;;;;;;;;;;;;;;21.14;35.76;101631.20;104130;1292;59436;-81
2023/10/12 09:20:41;;;;;;;;;;;;;;;21.15;35.95;101626.15;104665;1291;59358;-81
2023/10/12 09:23:13;;;;;;;;;;;;;;;21.16;35.89;101624.85;104572;1286;72764;-81
2023/10/12 09:28:27;;;;;;;;;;;;;;;21.17;36.00;101617.80;104296;1286;61368;-81
2023/10/12 09:30:53;;;;;;;;;;;;;;;21.17;35.96;101616.93;104737;1288;61157;-81
2023/10/12 09:36:03;;;;;;;;;;;;;;;21.13;36.10;101607.86;104828;1286;76718;-81
2023/10/12 09:38:30;;;;;;;;;;;;;;;21.14;36.02;101602.23;104820;1286;60897;-81
2023/10/12 09:40:59;;;;;;;;;;;;;;;21.14;35.96;101598.98;104814;1288;61259;-81
2023/10/12 09:43:25;;;;;;;;;;;;;;;21.16;36.05;101595.46;106189;1288;74292;-81
2023/10/12 09:45:55;;;;;;;;;;;;;;;21.18;36.14;101591.23;105848;1287;59427;-81
2023/10/12 09:48:27;;;;;;;;;;;;;;;21.20;36.13;101585.20;104932;1290;62194;-81
2023/10/12 09:50:53;;;;;;;;;;;;;;;21.21;36.09;101578.36;104745;1288;60088;-81
2023/10/12 09:53:26;;;;;;;;;;;;;;;21.19;36.14;101574.52;104719;1289;59681;-80
2023/10/12 09:56:10;;;;;;;;;;;;;;;21.18;36.19;101569.25;104691;1289;74591;-80
2023/10/12 09:58:43;;;;;;;;;;;;;;;21.16;36.01;101562.34;104880;1286;59733;-81
2023/10/12 10:01:15;;;;;;;;;;;;;;;21.13;36.14;101564.13;104858;1287;61361;-82
2023/10/12 10:03:47;;;;;;;;;;;;;;;21.12;36.01;101553.64;104966;1294;73243;-83
2023/10/12 10:06:20;;;;;;;;;;;;;;;21.15;36.22;101552.24;105064;1286;75414;-81
2023/10/12 10:09:02;;;;;;;;;;;;;;;21.15;36.10;101550.45;105134;1288;61275;-84
2023/10/12 10:11:28;;;;;;;;;;;;;;;21.13;36.27;101544.98;105113;1288;61598;-81
2023/10/12 10:13:53;;;;;;;;;;;;;;;21.14;36.42;101545.50;105134;1290;61401;-81
2023/10/12 10:16:19;;;;;;;;;;;;;;;21.15;36.37;101544.19;104716;1289;61264;-82
2023/10/12 10:18:46;;;;;;;;;;;;;;;21.14;36.35;101538.86;104643;1291;61280;-81
2023/10/12 10:21:13;;;;;;;;;;;;;;;21.14;36.46;101530.97;104750;1292;61211;-81
2023/10/12 10:23:48;;;;;;;;;;;;;;;21.15;36.31;101527.00;106091;1292;59724;-81
2023/10/12 10:26:23;;;;;;;;;;;;;;;21.16;36.44;101521.17;105779;1286;74265;-81
2023/10/12 10:28:55;;;;;;;;;;;;;;;21.19;36.43;101517.98;104586;1292;61265;-81
2023/10/12 10:31:41;;;;;;;;;;;;;;;21.20;36.51;101515.40;106251;1287;61185;-82
2023/10/12 10:34:10;;;;;;;;;;;;;;;21.21;36.45;101516.61;106129;1288;73359;-83
2023/10/12 10:36:36;;;;;;;;;;;;;;;21.21;36.46;101510.85;105637;1291;75427;-81
2023/10/12 10:44:52;;;;;;;;;;;;;;;21.23;36.52;101501.42;104540;1291;72694;-80
2023/10/12 10:47:00;;;;;;;;;;;;;;;21.26;36.67;101497.84;104655;1292;74459;-81
2023/10/12 10:49:33;;;;;;;;;;;;;;;21.29;36.71;101492.00;104738;1288;61272;-80
2023/10/12 10:52:41;;;;;;;;;;;;;;;21.29;36.60;101485.55;104592;1286;61331;-81
2023/10/12 10:54:56;;;;;;;;;;;;;;;21.30;36.69;101482.61;104590;1292;72600;-81
2023/10/12 10:57:31;;;;;;;;;;;;;;;21.31;36.67;101482.17;104933;1289;75644;-80
2023/10/12 10:59:57;;;;;;;;;;;;;;;21.32;36.66;101476.20;104978;1288;61194;-81
2023/10/12 11:02:22;;;;;;;;;;;;;;;21.32;36.76;101473.86;105269;1292;61384;-81
2023/10/12 11:04:51;;;;;;;;;;;;;;;21.35;36.90;101470.77;105591;1286;61371;-81
2023/10/12 11:07:17;;;;;;;;;;;;;;;21.38;37.07;101466.11;105542;1294;74415;-81
2023/10/12 11:10:05;;;;;;;;;;;;;;;21.40;37.15;101456.33;105492;1288;62278;-82
2023/10/12 11:12:36;;;;;;;;;;;;;;;21.40;36.87;101451.52;105482;1286;60206;-80
2023/10/12 11:15:14;;;;;;;;;;;;;;;21.41;37.09;101444.80;105318;1289;72612;-82
2023/10/12 11:17:56;;;;;;;;;;;;;;;21.43;37.08;101440.41;105465;1286;76231;-81
2023/10/12 11:20:27;;;;;;;;;;;;;;;21.46;37.14;101441.09;105284;1291;61256;-81
2023/10/12 11:22:59;;;;;;;;;;;;;;;21.50;37.14;101435.33;105088;1286;60789;-81
2023/10/12 11:25:28;;;;;;;;;;;;;;;21.51;37.06;101433.98;104950;1288;73493;-82
2023/10/12 11:27:58;;;;;;;;;;;;;;;21.54;37.07;101432.05;104985;1291;74726;-81
2023/10/12 11:30:31;;;;;;;;;;;;;;;21.55;37.10;101429.09;104759;1288;61372;-82
2023/10/12 11:32:58;;;;;;;;;;;;;;;21.56;36.88;101421.72;104782;1287;61686;-81
2023/10/12 11:35:33;;;;;;;;;;;;;;;21.56;36.86;101418.44;105991;1288;73219;-82
2023/10/12 11:38:00;;;;;;;;;;;;;;;21.58;36.70;101415.48;104698;1290;76500;-82
2023/10/12 11:40:28;;;;;;;;;;;;;;;21.59;36.78;101405.04;104493;1291;61201;-81
2023/10/12 11:42:54;;;;;;;;;;;;;;;21.60;36.83;101405.69;104487;1290;61608;-80
2023/10/12 11:45:19;;;;;;;;;;;;;;;21.63;36.77;101406.61;104367;1289;59504;-80
2023/10/12 11:47:46;;;;;;;;;;;;;;;21.66;36.76;101402.84;104550;1294;60755;-81
2023/10/12 11:50:13;;;;;;;;;;;;;;;21.68;36.74;101401.06;104523;1286;61359;-81
2023/10/12 11:52:40;;;;;;;;;;;;;;;21.71;36.77;101396.95;104775;1286;64061;-81
2023/10/12 11:55:18;;;;;;;;;;;;;;;21.72;36.70;101388.80;106192;1288;59296;-81
2023/10/12 11:57:48;;;;;;;;;;;;;;;21.71;36.69;101385.64;106263;1288;74292;-81
2023/10/12 12:00:29;;;;;;;;;;;;;;;21.69;36.69;101379.83;106281;1286;59993;-81
2023/10/12 12:02:59;;;;;;;;;;;;;;;21.67;36.65;101378.38;106175;1287;60351;-81
2023/10/12 12:05:33;;;;;;;;;;;;;;;21.66;36.67;101378.66;106190;1292;72568;-82
2023/10/12 12:08:10;;;;;;;;;;;;;;;21.63;36.60;101375.98;104658;1294;74104;-81
2023/10/12 12:13:15;;;;;;;;;;;;;;;21.62;36.62;101369.23;105095;1288;61294;-81
2023/10/12 12:15:43;;;;;;;;;;;;;;;21.64;36.73;101367.11;105329;1289;61282;-82
2023/10/12 12:18:19;;;;;;;;;;;;;;;21.66;36.67;101363.39;105240;1288;74417;-81
2023/10/12 12:20:56;;;;;;;;;;;;;;;21.68;36.82;101364.36;104874;1286;61294;-81
2023/10/12 12:23:27;;;;;;;;;;;;;;;21.66;36.64;101360.88;104785;1292;59936;-81
2023/10/12 12:25:59;;;;;;;;;;;;;;;21.64;36.65;101359.58;105190;1287;72485;-81
2023/10/12 12:28:31;;;;;;;;;;;;;;;21.62;36.63;101355.80;104381;1289;75580;-81
2023/10/12 12:31:00;;;;;;;;;;;;;;;21.59;36.45;101351.33;104513;1287;61273;-82
2023/10/12 12:33:29;;;;;;;;;;;;;;;21.56;36.47;101348.61;104506;1286;61248;-80
2023/10/12 12:36:07;;;;;;;;;;;;;;;21.53;36.43;101348.08;104631;1293;73170;-81
2023/10/12 12:40:58;;;;;;;;;;;;;;;21.49;36.16;101332.10;104611;1286;61297;-80
2023/10/12 12:43:24;;;;;;;;;;;;;;;21.46;36.18;101330.98;104372;1288;61343;-81
2023/10/12 12:45:52;;;;;;;;;;;;;;;21.45;36.00;101323.19;104374;1291;61462;-80
2023/10/12 12:48:21;;;;;;;;;;;;;;;21.45;36.08;101320.15;104771;1292;61712;-81
2023/10/12 12:50:49;;;;;;;;;;;;;;;21.45;36.07;101320.69;104667;1292;61175;-81
2023/10/12 12:53:18;;;;;;;;;;;;;;;21.45;35.97;101312.83;104380;1291;61322;-81
2023/10/12 12:55:44;;;;;;;;;;;;;;;21.43;35.96;101311.98;106294;1286;72603;-82
2023/10/12 12:58:14;;;;;;;;;;;;;;;21.43;36.00;101307.73;106237;1289;59011;-82
2023/10/12 13:00:40;;;;;;;;;;;;;;;21.42;35.80;101308.71;106237;1287;59770;-82
2023/10/12 13:03:05;;;;;;;;;;;;;;;21.41;35.91;101309.45;106139;1288;59238;-81
2023/10/12 13:05:32;;;;;;;;;;;;;;;21.42;35.80;101300.64;106215;1286;59031;-80
2023/10/12 13:08:00;;;;;;;;;;;;;;;21.42;35.63;101296.16;106072;1292;59441;-80
2023/10/12 13:10:26;;;;;;;;;;;;;;;21.42;35.86;101290.57;104454;1288;59992;-83
2023/10/12 13:12:52;;;;;;;;;;;;;;;21.42;35.71;101291.98;104830;1288;63827;-82
2023/10/12 13:15:18;;;;;;;;;;;;;;;21.43;35.72;101291.92;106055;1286;60496;-81
2023/10/12 13:17:44;;;;;;;;;;;;;;;21.45;35.66;101289.33;106056;1287;59420;-82
2023/10/12 13:20:31;;;;;;;;;;;;;;;21.46;35.70;101286.96;104413;1292;61256;-82
2023/10/12 13:22:56;;;;;;;;;;;;;;;21.46;35.65;101286.23;104272;1288;61205;-79
2023/10/12 13:25:21;;;;;;;;;;;;;;;21.46;35.44;101287.13;104442;1286;60021;-82
2023/10/12 13:27:51;;;;;;;;;;;;;;;21.45;35.36;101283.23;104225;1286;61353;-82
2023/10/12 13:30:17;;;;;;;;;;;;;;;21.46;35.41;101281.42;104446;1288;61273;-81
2023/10/12 13:32:43;;;;;;;;;;;;;;;21.46;35.32;101279.96;103834;1288;61392;-79
2023/10/12 13:35:18;;;;;;;;;;;;;;;21.46;35.41;101273.51;103779;1288;61390;-80
2023/10/12 13:37:45;;;;;;;;;;;;;;;21.45;35.45;101265.52;103606;1288;75839;-81
2023/10/12 13:40:15;;;;;;;;;;;;;;;21.45;35.25;101257.84;103772;1288;61547;-80
2023/10/12 13:42:41;;;;;;;;;;;;;;;21.45;35.27;101256.08;103628;1287;61300;-81
2023/10/12 13:45:07;;;;;;;;;;;;;;;21.44;35.12;101254.48;103561;1291;61398;-81
2023/10/12 13:47:32;;;;;;;;;;;;;;;21.43;35.07;101253.25;104076;1288;61307;-80
2023/10/12 13:49:58;;;;;;;;;;;;;;;21.43;35.23;101250.05;104150;1289;61324;-80
2023/10/12 13:52:24;;;;;;;;;;;;;;;21.42;35.26;101250.45;105751;1287;61398;-81
2023/10/12 13:54:52;;;;;;;;;;;;;;;21.43;35.32;101245.23;103858;1292;61446;-81
2023/10/12 13:57:18;;;;;;;;;;;;;;;21.43;35.23;101243.98;104015;1287;61382;-81
2023/10/12 13:59:47;;;;;;;;;;;;;;;21.43;35.27;101240.59;104223;1287;59440;-81
2023/10/12 14:02:13;;;;;;;;;;;;;;;21.43;35.21;101238.95;104290;1288;60371;-82
2023/10/12 14:04:40;;;;;;;;;;;;;;;21.44;35.24;101236.55;104108;1288;63049;-83
2023/10/12 14:07:07;;;;;;;;;;;;;;;21.47;35.51;101237.98;104263;1288;75150;-82
2023/10/12 14:09:32;;;;;;;;;;;;;;;21.49;35.61;101234.14;104403;1292;61247;-82
2023/10/12 14:11:58;;;;;;;;;;;;;;;21.49;35.68;101234.61;104922;1288;61310;-82
2023/10/12 14:14:24;;;;;;;;;;;;;;;21.50;35.64;101232.80;104353;1288;61408;-81
2023/10/12 14:16:50;;;;;;;;;;;;;;;21.49;35.58;101230.36;104471;1287;59840;-82
2023/10/12 14:19:16;;;;;;;;;;;;;;;21.49;35.53;101228.23;106292;1287;60291;-82
2023/10/12 14:21:43;;;;;;;;;;;;;;;21.49;35.57;101228.21;104470;1288;370265;-82
2023/10/12 14:24:08;;;;;;;;;;;;;;;21.49;35.50;101226.06;104038;1290;61477;-82
2023/10/12 14:26:35;;;;;;;;;;;;;;;21.49;35.50;101222.14;104036;1288;61892;-81
2023/10/12 14:29:08;;;;;;;;;;;;;;;21.49;35.46;101219.98;103744;1288;74634;-82
2023/10/12 14:31:49;;;;;;;;;;;;;;;21.49;35.42;101220.51;103519;1290;62658;-82
2023/10/12 14:34:15;;;;;;;;;;;;;;;21.48;35.39;101215.15;103905;1288;61321;-82
2023/10/12 14:36:41;;;;;;;;;;;;;;;21.48;35.38;101214.11;103938;1292;61474;-82
2023/10/12 14:39:12;;;;;;;;;;;;;;;21.48;35.34;101212.52;103667;1289;61462;-81
2023/10/12 14:41:38;;;;;;;;;;;;;;;21.47;35.28;101212.94;103672;1290;61347;-83
2023/10/12 14:44:04;;;;;;;;;;;;;;;21.46;35.23;101211.60;103802;1287;61873;-81
2023/10/12 14:46:29;;;;;;;;;;;;;;;21.44;35.15;101210.27;104143;1288;61303;-82
2023/10/12 14:48:55;;;;;;;;;;;;;;;21.43;35.05;101210.66;104283;1288;61403;-83
2023/10/12 14:51:25;;;;;;;;;;;;;;;21.43;35.09;101210.68;104218;1288;59500;-83
2023/10/12 14:53:50;;;;;;;;;;;;;;;21.43;35.09;101214.80;104583;1288;61297;-82
2023/10/12 14:56:23;;;;;;;;;;;;;;;21.42;35.06;101217.73;104064;1288;61462;-82
2023/10/12 14:58:50;;;;;;;;;;;;;;;21.42;35.09;101217.92;104240;1288;73724;-82
2023/10/12 15:01:17;;;;;;;;;;;;;;;21.42;34.96;101217.35;104564;1288;74235;-82
2023/10/12 15:03:45;;;;;;;;;;;;;;;21.45;35.31;101217.35;105005;1289;61189;-81
2023/10/12 15:06:12;;;;;;;;;;;;;;;21.50;35.41;101216.68;105564;1287;60957;-80
2023/10/12 15:08:37;;;;;;;;;;;;;;;21.54;35.71;101219.28;105569;1288;72553;-80
2023/10/12 15:11:05;;;;;;;;;;;;;;;21.55;35.74;101221.53;105173;1287;61885;-81
2023/10/12 15:13:31;;;;;;;;;;;;;;;21.56;35.56;101225.41;105075;1288;61151;-80